Aullville, Missouri
Current Conditions -  °F | °C
As of 2:35 PM on Saturday 20 Dec 2014 (Local Time) from KRCM Reporting Station
Overcast Overcast  
Wind Chill:   Ceiling: 1000
Heat Index:   Visibility: 7mi
Dew Point:   Wind: 7mph
Humidity: 87%   Direction: 180°S
Pressure: 30.16"   Gusts: NA
Location:  39.0541°N, 93.6618°W
Report Text: KRCM 202035Z AUTO 18006KT 7SM OVC010 03/01 A3016 RMK AO2
Loading
Personal Weather Stations






























Interactive Weather Map New forecast layout! Learn more

10-Day Weather Forecast

Advertisements
Track Severe Weather on mobile